Terminal Aerodrome Forecast
Issued by NWS

Home | Current Version | Previous Version | Graphics & Text | Print | Product List | Glossary On
Versions: 1 2 3 4 5 6 7 8 9 10 11 12 13 14
268
FTUS43 KGRB 101134
TAFMTW
TAF
KMTW 101134Z 1012/1112 31012KT P6SM SCT035
     FM101600 32013G19KT P6SM BKN035
     FM110100 31009KT P6SM SKC=

USA.gov is the U.S. government's official web portal to all federal, state and local government web resources and services.